sensor_id;sensor_type;location;lat;lon;timestamp;P1;durP1;ratioP1;P2;durP2;ratioP2
54897;SDS011;40800;52.704;6.398;2023-09-19T00:00:36;18.73;;;17.17;;
54897;SDS011;40800;52.704;6.398;2023-09-19T00:03:02;18.17;;;16.87;;
54897;SDS011;40800;52.704;6.398;2023-09-19T00:05:29;18.42;;;16.90;;
54897;SDS011;40800;52.704;6.398;2023-09-19T00:07:59;18.70;;;17.35;;
54897;SDS011;40800;52.704;6.398;2023-09-19T00:10:26;19.65;;;18.17;;
54897;SDS011;40800;52.704;6.398;2023-09-19T00:12:56;19.58;;;18.05;;
54897;SDS011;40800;52.704;6.398;2023-09-19T00:15:26;19.17;;;17.60;;
54897;SDS011;40800;52.704;6.398;2023-09-19T00:17:54;19.60;;;18.08;;
54897;SDS011;40800;52.704;6.398;2023-09-19T00:20:20;19.17;;;17.80;;
54897;SDS011;40800;52.704;6.398;2023-09-19T00:22:48;19.15;;;17.65;;
54897;SDS011;40800;52.704;6.398;2023-09-19T00:25:17;20.02;;;18.60;;
54897;SDS011;40800;52.704;6.398;2023-09-19T00:27:42;19.23;;;17.67;;
54897;SDS011;40800;52.704;6.398;2023-09-19T00:30:10;19.40;;;17.60;;
54897;SDS011;40800;52.704;6.398;2023-09-19T00:32:44;19.15;;;17.42;;
54897;SDS011;40800;52.704;6.398;2023-09-19T00:35:12;19.63;;;17.95;;
54897;SDS011;40800;52.704;6.398;2023-09-19T00:37:41;18.95;;;17.55;;
54897;SDS011;40800;52.704;6.398;2023-09-19T00:40:07;19.88;;;18.15;;
54897;SDS011;40800;52.704;6.398;2023-09-19T00:42:43;19.92;;;17.83;;
54897;SDS011;40800;52.704;6.398;2023-09-19T00:45:09;19.42;;;17.73;;
54897;SDS011;40800;52.704;6.398;2023-09-19T00:47:57;19.77;;;17.90;;
54897;SDS011;40800;52.704;6.398;2023-09-19T00:50:28;19.15;;;17.50;;
54897;SDS011;40800;52.704;6.398;2023-09-19T00:52:55;20.30;;;18.40;;
54897;SDS011;40800;52.704;6.398;2023-09-19T00:55:21;20.15;;;18.45;;
54897;SDS011;40800;52.704;6.398;2023-09-19T00:57:48;20.17;;;18.38;;
54897;SDS011;40800;52.704;6.398;2023-09-19T01:00:15;19.95;;;18.30;;
54897;SDS011;40800;52.704;6.398;2023-09-19T01:02:41;20.13;;;18.23;;
54897;SDS011;40800;52.704;6.398;2023-09-19T01:05:08;20.13;;;17.92;;
54897;SDS011;40800;52.704;6.398;2023-09-19T01:07:34;20.10;;;18.08;;
54897;SDS011;40800;52.704;6.398;2023-09-19T01:10:04;20.67;;;18.97;;
54897;SDS011;40800;52.704;6.398;2023-09-19T01:12:39;20.45;;;18.42;;
54897;SDS011;40800;52.704;6.398;2023-09-19T01:15:28;19.25;;;17.48;;
54897;SDS011;40800;52.704;6.398;2023-09-19T01:21:14;19.08;;;17.38;;
54897;SDS011;40800;52.704;6.398;2023-09-19T01:29:38;19.70;;;17.98;;
54897;SDS011;40800;52.704;6.398;2023-09-19T01:32:09;19.20;;;17.70;;
54897;SDS011;40800;52.704;6.398;2023-09-19T01:34:45;20.13;;;18.40;;
54897;SDS011;40800;52.704;6.398;2023-09-19T01:37:15;20.23;;;18.37;;
54897;SDS011;40800;52.704;6.398;2023-09-19T01:39:45;19.92;;;18.20;;
54897;SDS011;40800;52.704;6.398;2023-09-19T01:44:51;20.30;;;18.65;;
54897;SDS011;40800;52.704;6.398;2023-09-19T01:47:31;20.45;;;18.73;;
54897;SDS011;40800;52.704;6.398;2023-09-19T01:52:57;19.98;;;17.98;;
54897;SDS011;40800;52.704;6.398;2023-09-19T01:55:29;20.10;;;18.50;;
54897;SDS011;40800;52.704;6.398;2023-09-19T01:58:04;19.60;;;17.92;;
54897;SDS011;40800;52.704;6.398;2023-09-19T02:00:34;19.45;;;17.88;;
54897;SDS011;40800;52.704;6.398;2023-09-19T02:03:04;18.77;;;17.25;;
54897;SDS011;40800;52.704;6.398;2023-09-19T02:05:30;19.50;;;17.73;;
54897;SDS011;40800;52.704;6.398;2023-09-19T02:07:55;20.20;;;18.10;;
54897;SDS011;40800;52.704;6.398;2023-09-19T02:10:22;18.88;;;17.17;;
54897;SDS011;40800;52.704;6.398;2023-09-19T02:12:48;23.25;;;18.00;;
54897;SDS011;40800;52.704;6.398;2023-09-19T02:15:14;20.17;;;18.33;;
54897;SDS011;40800;52.704;6.398;2023-09-19T02:17:41;18.85;;;17.25;;
54897;SDS011;40800;52.704;6.398;2023-09-19T02:20:08;19.67;;;18.02;;
54897;SDS011;40800;52.704;6.398;2023-09-19T02:22:35;19.55;;;17.83;;
54897;SDS011;40800;52.704;6.398;2023-09-19T02:25:00;19.67;;;17.67;;
54897;SDS011;40800;52.704;6.398;2023-09-19T02:27:27;19.98;;;18.02;;
54897;SDS011;40800;52.704;6.398;2023-09-19T02:29:52;18.08;;;16.58;;
54897;SDS011;40800;52.704;6.398;2023-09-19T02:32:19;18.55;;;16.90;;
54897;SDS011;40800;52.704;6.398;2023-09-19T02:34:44;18.88;;;17.00;;
54897;SDS011;40800;52.704;6.398;2023-09-19T02:37:10;17.80;;;16.48;;
54897;SDS011;40800;52.704;6.398;2023-09-19T02:39:35;19.45;;;17.52;;
54897;SDS011;40800;52.704;6.398;2023-09-19T02:42:01;18.23;;;16.65;;
54897;SDS011;40800;52.704;6.398;2023-09-19T02:44:29;18.40;;;16.58;;
54897;SDS011;40800;52.704;6.398;2023-09-19T02:46:54;18.08;;;16.38;;
54897;SDS011;40800;52.704;6.398;2023-09-19T02:49:20;18.33;;;16.58;;
54897;SDS011;40800;52.704;6.398;2023-09-19T02:51:45;18.33;;;16.65;;
54897;SDS011;40800;52.704;6.398;2023-09-19T02:54:12;19.33;;;17.48;;
54897;SDS011;40800;52.704;6.398;2023-09-19T02:56:38;18.20;;;16.73;;
54897;SDS011;40800;52.704;6.398;2023-09-19T02:59:04;18.85;;;17.23;;
54897;SDS011;40800;52.704;6.398;2023-09-19T03:01:30;19.77;;;17.90;;
54897;SDS011;40800;52.704;6.398;2023-09-19T03:03:57;18.13;;;16.65;;
54897;SDS011;40800;52.704;6.398;2023-09-19T03:06:23;18.55;;;16.80;;
54897;SDS011;40800;52.704;6.398;2023-09-19T03:08:49;17.48;;;16.17;;
54897;SDS011;40800;52.704;6.398;2023-09-19T03:11:16;18.25;;;16.63;;
54897;SDS011;40800;52.704;6.398;2023-09-19T03:13:46;18.40;;;16.75;;
54897;SDS011;40800;52.704;6.398;2023-09-19T03:16:16;18.23;;;16.75;;
54897;SDS011;40800;52.704;6.398;2023-09-19T03:18:41;18.85;;;17.30;;
54897;SDS011;40800;52.704;6.398;2023-09-19T03:21:07;18.80;;;17.10;;
54897;SDS011;40800;52.704;6.398;2023-09-19T03:23:33;17.90;;;16.38;;
54897;SDS011;40800;52.704;6.398;2023-09-19T03:25:58;19.10;;;17.38;;
54897;SDS011;40800;52.704;6.398;2023-09-19T03:28:24;18.80;;;17.25;;
54897;SDS011;40800;52.704;6.398;2023-09-19T03:30:59;18.92;;;17.23;;
54897;SDS011;40800;52.704;6.398;2023-09-19T03:33:26;18.80;;;17.15;;
54897;SDS011;40800;52.704;6.398;2023-09-19T03:35:52;19.17;;;17.20;;
54897;SDS011;40800;52.704;6.398;2023-09-19T03:38:18;18.23;;;16.65;;
54897;SDS011;40800;52.704;6.398;2023-09-19T03:40:44;17.80;;;16.30;;
54897;SDS011;40800;52.704;6.398;2023-09-19T03:43:10;19.17;;;17.70;;
54897;SDS011;40800;52.704;6.398;2023-09-19T03:45:35;18.98;;;17.27;;
54897;SDS011;40800;52.704;6.398;2023-09-19T03:48:06;20.73;;;18.90;;
54897;SDS011;40800;52.704;6.398;2023-09-19T03:50:36;19.10;;;17.42;;
54897;SDS011;40800;52.704;6.398;2023-09-19T03:53:02;18.88;;;17.38;;
54897;SDS011;40800;52.704;6.398;2023-09-19T03:55:28;19.48;;;17.92;;
54897;SDS011;40800;52.704;6.398;2023-09-19T04:00:21;19.20;;;17.67;;
54897;SDS011;40800;52.704;6.398;2023-09-19T04:02:49;20.02;;;17.98;;
54897;SDS011;40800;52.704;6.398;2023-09-19T04:05:16;19.40;;;17.42;;
54897;SDS011;40800;52.704;6.398;2023-09-19T04:07:42;19.77;;;17.67;;
54897;SDS011;40800;52.704;6.398;2023-09-19T04:10:07;18.77;;;17.25;;
54897;SDS011;40800;52.704;6.398;2023-09-19T04:12:35;19.90;;;18.25;;
54897;SDS011;40800;52.704;6.398;2023-09-19T04:15:00;19.80;;;18.20;;
54897;SDS011;40800;52.704;6.398;2023-09-19T04:17:26;21.40;;;19.70;;
54897;SDS011;40800;52.704;6.398;2023-09-19T04:19:52;20.30;;;18.70;;
54897;SDS011;40800;52.704;6.398;2023-09-19T04:22:18;20.42;;;18.70;;
54897;SDS011;40800;52.704;6.398;2023-09-19T04:24:44;20.85;;;19.13;;
54897;SDS011;40800;52.704;6.398;2023-09-19T04:27:10;22.85;;;20.63;;
54897;SDS011;40800;52.704;6.398;2023-09-19T04:29:37;21.20;;;19.20;;
54897;SDS011;40800;52.704;6.398;2023-09-19T04:32:04;20.73;;;18.65;;
54897;SDS011;40800;52.704;6.398;2023-09-19T04:34:30;21.52;;;19.27;;
54897;SDS011;40800;52.704;6.398;2023-09-19T04:36:56;20.38;;;18.67;;
54897;SDS011;40800;52.704;6.398;2023-09-19T04:39:24;21.08;;;19.05;;
54897;SDS011;40800;52.704;6.398;2023-09-19T04:41:51;20.80;;;19.00;;
54897;SDS011;40800;52.704;6.398;2023-09-19T04:46:43;20.23;;;18.33;;
54897;SDS011;40800;52.704;6.398;2023-09-19T04:49:09;19.98;;;18.20;;
54897;SDS011;40800;52.704;6.398;2023-09-19T04:51:35;19.30;;;17.65;;
54897;SDS011;40800;52.704;6.398;2023-09-19T04:54:01;23.50;;;18.40;;
54897;SDS011;40800;52.704;6.398;2023-09-19T04:56:27;21.25;;;19.00;;
54897;SDS011;40800;52.704;6.398;2023-09-19T04:58:57;20.70;;;18.65;;
54897;SDS011;40800;52.704;6.398;2023-09-19T05:01:26;19.52;;;17.55;;
54897;SDS011;40800;52.704;6.398;2023-09-19T05:03:52;20.10;;;17.15;;
54897;SDS011;40800;52.704;6.398;2023-09-19T05:06:20;19.13;;;17.42;;
54897;SDS011;40800;52.704;6.398;2023-09-19T05:08:47;20.48;;;17.67;;
54897;SDS011;40800;52.704;6.398;2023-09-19T05:11:17;19.42;;;17.50;;
54897;SDS011;40800;52.704;6.398;2023-09-19T05:13:43;19.08;;;17.33;;
54897;SDS011;40800;52.704;6.398;2023-09-19T05:16:08;19.10;;;17.20;;
54897;SDS011;40800;52.704;6.398;2023-09-19T05:18:35;18.60;;;16.80;;
54897;SDS011;40800;52.704;6.398;2023-09-19T05:21:04;16.77;;;15.13;;
54897;SDS011;40800;52.704;6.398;2023-09-19T05:23:30;17.83;;;15.73;;
54897;SDS011;40800;52.704;6.398;2023-09-19T05:25:56;18.83;;;16.83;;
54897;SDS011;40800;52.704;6.398;2023-09-19T05:28:24;17.90;;;16.02;;
54897;SDS011;40800;52.704;6.398;2023-09-19T05:30:50;18.92;;;17.15;;
54897;SDS011;40800;52.704;6.398;2023-09-19T05:33:18;18.05;;;16.42;;
54897;SDS011;40800;52.704;6.398;2023-09-19T05:35:43;18.05;;;16.27;;
54897;SDS011;40800;52.704;6.398;2023-09-19T05:38:10;17.77;;;16.10;;
54897;SDS011;40800;52.704;6.398;2023-09-19T05:40:37;18.13;;;15.10;;
54897;SDS011;40800;52.704;6.398;2023-09-19T05:43:05;17.17;;;15.43;;
54897;SDS011;40800;52.704;6.398;2023-09-19T05:45:31;17.98;;;15.98;;
54897;SDS011;40800;52.704;6.398;2023-09-19T05:48:05;18.83;;;15.65;;
54897;SDS011;40800;52.704;6.398;2023-09-19T05:50:33;16.98;;;15.32;;
54897;SDS011;40800;52.704;6.398;2023-09-19T05:52:59;19.30;;;16.02;;
54897;SDS011;40800;52.704;6.398;2023-09-19T05:55:24;18.52;;;16.70;;
54897;SDS011;40800;52.704;6.398;2023-09-19T05:57:50;20.55;;;16.17;;
54897;SDS011;40800;52.704;6.398;2023-09-19T06:00:18;18.50;;;16.17;;
54897;SDS011;40800;52.704;6.398;2023-09-19T06:02:49;21.73;;;15.57;;
54897;SDS011;40800;52.704;6.398;2023-09-19T06:05:18;17.02;;;15.30;;
54897;SDS011;40800;52.704;6.398;2023-09-19T06:07:45;16.95;;;15.35;;
54897;SDS011;40800;52.704;6.398;2023-09-19T06:10:10;17.83;;;15.05;;
54897;SDS011;40800;52.704;6.398;2023-09-19T06:12:39;16.08;;;14.45;;
54897;SDS011;40800;52.704;6.398;2023-09-19T06:15:06;18.17;;;14.50;;
54897;SDS011;40800;52.704;6.398;2023-09-19T06:17:33;17.58;;;14.38;;
54897;SDS011;40800;52.704;6.398;2023-09-19T06:20:03;16.40;;;14.77;;
54897;SDS011;40800;52.704;6.398;2023-09-19T06:22:40;19.17;;;15.48;;
54897;SDS011;40800;52.704;6.398;2023-09-19T06:25:09;16.05;;;14.32;;
54897;SDS011;40800;52.704;6.398;2023-09-19T06:27:37;15.82;;;14.15;;
54897;SDS011;40800;52.704;6.398;2023-09-19T06:30:07;16.58;;;14.80;;
54897;SDS011;40800;52.704;6.398;2023-09-19T06:32:34;15.45;;;14.05;;
54897;SDS011;40800;52.704;6.398;2023-09-19T06:35:00;15.77;;;14.32;;
54897;SDS011;40800;52.704;6.398;2023-09-19T06:37:27;18.15;;;15.43;;
54897;SDS011;40800;52.704;6.398;2023-09-19T06:39:53;16.17;;;13.80;;
54897;SDS011;40800;52.704;6.398;2023-09-19T06:42:19;16.95;;;14.57;;
54897;SDS011;40800;52.704;6.398;2023-09-19T06:44:44;17.85;;;14.50;;
54897;SDS011;40800;52.704;6.398;2023-09-19T06:47:10;15.27;;;13.85;;
54897;SDS011;40800;52.704;6.398;2023-09-19T06:49:36;15.90;;;14.27;;
54897;SDS011;40800;52.704;6.398;2023-09-19T06:52:01;16.17;;;14.50;;
54897;SDS011;40800;52.704;6.398;2023-09-19T06:54:28;17.50;;;14.57;;
54897;SDS011;40800;52.704;6.398;2023-09-19T06:56:56;16.48;;;14.38;;
54897;SDS011;40800;52.704;6.398;2023-09-19T06:59:23;17.23;;;14.48;;
54897;SDS011;40800;52.704;6.398;2023-09-19T07:01:49;15.55;;;13.95;;
54897;SDS011;40800;52.704;6.398;2023-09-19T07:04:16;17.70;;;14.40;;
54897;SDS011;40800;52.704;6.398;2023-09-19T07:06:44;16.25;;;14.57;;
54897;SDS011;40800;52.704;6.398;2023-09-19T07:09:14;16.30;;;14.68;;
54897;SDS011;40800;52.704;6.398;2023-09-19T07:11:40;17.92;;;14.20;;
54897;SDS011;40800;52.704;6.398;2023-09-19T07:14:06;17.10;;;14.50;;
54897;SDS011;40800;52.704;6.398;2023-09-19T07:16:32;15.82;;;13.88;;
54897;SDS011;40800;52.704;6.398;2023-09-19T07:18:57;17.42;;;14.07;;
54897;SDS011;40800;52.704;6.398;2023-09-19T07:21:23;15.45;;;13.15;;
54897;SDS011;40800;52.704;6.398;2023-09-19T07:23:49;14.45;;;13.15;;
54897;SDS011;40800;52.704;6.398;2023-09-19T07:26:15;16.10;;;13.55;;
54897;SDS011;40800;52.704;6.398;2023-09-19T07:28:41;16.67;;;14.87;;
54897;SDS011;40800;52.704;6.398;2023-09-19T07:31:07;16.73;;;13.53;;
54897;SDS011;40800;52.704;6.398;2023-09-19T07:33:35;15.55;;;13.98;;
54897;SDS011;40800;52.704;6.398;2023-09-19T07:36:01;15.93;;;14.23;;
54897;SDS011;40800;52.704;6.398;2023-09-19T07:38:27;16.90;;;13.32;;
54897;SDS011;40800;52.704;6.398;2023-09-19T07:40:53;14.25;;;12.85;;
54897;SDS011;40800;52.704;6.398;2023-09-19T07:43:24;15.80;;;14.20;;
54897;SDS011;40800;52.704;6.398;2023-09-19T07:45:50;14.88;;;13.32;;
54897;SDS011;40800;52.704;6.398;2023-09-19T07:48:15;16.05;;;13.50;;
54897;SDS011;40800;52.704;6.398;2023-09-19T07:50:41;19.27;;;13.13;;
54897;SDS011;40800;52.704;6.398;2023-09-19T07:53:08;17.23;;;13.73;;
54897;SDS011;40800;52.704;6.398;2023-09-19T07:55:34;18.40;;;12.98;;
54897;SDS011;40800;52.704;6.398;2023-09-19T07:57:59;14.00;;;12.50;;
54897;SDS011;40800;52.704;6.398;2023-09-19T08:00:25;15.80;;;13.10;;
54897;SDS011;40800;52.704;6.398;2023-09-19T08:02:51;16.13;;;12.85;;
54897;SDS011;40800;52.704;6.398;2023-09-19T08:05:17;14.23;;;12.80;;
54897;SDS011;40800;52.704;6.398;2023-09-19T08:07:46;14.65;;;12.95;;
54897;SDS011;40800;52.704;6.398;2023-09-19T08:10:15;18.77;;;13.30;;
54897;SDS011;40800;52.704;6.398;2023-09-19T08:12:41;18.20;;;12.70;;
54897;SDS011;40800;52.704;6.398;2023-09-19T08:15:15;18.13;;;13.15;;
54897;SDS011;40800;52.704;6.398;2023-09-19T08:17:41;18.50;;;12.90;;
54897;SDS011;40800;52.704;6.398;2023-09-19T08:20:08;15.20;;;12.80;;
54897;SDS011;40800;52.704;6.398;2023-09-19T08:22:41;20.48;;;12.68;;
54897;SDS011;40800;52.704;6.398;2023-09-19T08:25:17;17.60;;;12.70;;
54897;SDS011;40800;52.704;6.398;2023-09-19T08:27:43;15.35;;;12.52;;
54897;SDS011;40800;52.704;6.398;2023-09-19T08:30:18;19.25;;;13.13;;
54897;SDS011;40800;52.704;6.398;2023-09-19T08:32:48;21.60;;;13.55;;
54897;SDS011;40800;52.704;6.398;2023-09-19T08:35:24;15.88;;;13.07;;
54897;SDS011;40800;52.704;6.398;2023-09-19T08:37:49;16.95;;;12.45;;
54897;SDS011;40800;52.704;6.398;2023-09-19T08:40:16;16.83;;;12.88;;
54897;SDS011;40800;52.704;6.398;2023-09-19T08:42:52;15.88;;;12.90;;
54897;SDS011;40800;52.704;6.398;2023-09-19T08:45:22;14.67;;;13.07;;
54897;SDS011;40800;52.704;6.398;2023-09-19T08:48:17;15.43;;;12.43;;
54897;SDS011;40800;52.704;6.398;2023-09-19T08:51:00;17.45;;;13.07;;
54897;SDS011;40800;52.704;6.398;2023-09-19T08:53:34;15.60;;;12.38;;
54897;SDS011;40800;52.704;6.398;2023-09-19T08:56:08;16.67;;;12.45;;
54897;SDS011;40800;52.704;6.398;2023-09-19T08:58:39;14.48;;;11.20;;
54897;SDS011;40800;52.704;6.398;2023-09-19T09:01:14;14.43;;;11.65;;
54897;SDS011;40800;52.704;6.398;2023-09-19T09:03:40;15.95;;;11.10;;
54897;SDS011;40800;52.704;6.398;2023-09-19T09:06:11;13.63;;;10.27;;
54897;SDS011;40800;52.704;6.398;2023-09-19T09:08:40;15.43;;;10.65;;
54897;SDS011;40800;52.704;6.398;2023-09-19T09:11:06;15.93;;;10.38;;
54897;SDS011;40800;52.704;6.398;2023-09-19T09:13:34;16.40;;;10.57;;
54897;SDS011;40800;52.704;6.398;2023-09-19T09:16:01;13.13;;;10.25;;
54897;SDS011;40800;52.704;6.398;2023-09-19T09:18:27;12.75;;;10.10;;
54897;SDS011;40800;52.704;6.398;2023-09-19T09:20:55;11.88;;;9.55;;
54897;SDS011;40800;52.704;6.398;2023-09-19T09:23:21;14.37;;;9.67;;
54897;SDS011;40800;52.704;6.398;2023-09-19T09:25:47;13.68;;;10.38;;
54897;SDS011;40800;52.704;6.398;2023-09-19T09:28:18;13.68;;;9.55;;
54897;SDS011;40800;52.704;6.398;2023-09-19T09:30:46;14.13;;;9.70;;
54897;SDS011;40800;52.704;6.398;2023-09-19T09:33:12;16.83;;;9.07;;
54897;SDS011;40800;52.704;6.398;2023-09-19T09:38:24;16.00;;;9.20;;
54897;SDS011;40800;52.704;6.398;2023-09-19T09:40:53;13.52;;;8.43;;
54897;SDS011;40800;52.704;6.398;2023-09-19T09:43:32;13.48;;;8.65;;
54897;SDS011;40800;52.704;6.398;2023-09-19T09:46:16;16.40;;;9.55;;
54897;SDS011;40800;52.704;6.398;2023-09-19T09:48:47;13.00;;;8.85;;
54897;SDS011;40800;52.704;6.398;2023-09-19T09:51:39;12.45;;;8.55;;
54897;SDS011;40800;52.704;6.398;2023-09-19T09:54:11;14.02;;;9.35;;
54897;SDS011;40800;52.704;6.398;2023-09-19T09:56:51;11.90;;;8.90;;
54897;SDS011;40800;52.704;6.398;2023-09-19T09:59:18;14.05;;;9.52;;
54897;SDS011;40800;52.704;6.398;2023-09-19T10:01:47;14.93;;;9.27;;
54897;SDS011;40800;52.704;6.398;2023-09-19T10:04:26;15.73;;;8.90;;
54897;SDS011;40800;52.704;6.398;2023-09-19T10:07:01;16.30;;;9.60;;
54897;SDS011;40800;52.704;6.398;2023-09-19T10:09:45;17.42;;;9.45;;
54897;SDS011;40800;52.704;6.398;2023-09-19T10:12:12;15.60;;;9.50;;
54897;SDS011;40800;52.704;6.398;2023-09-19T10:14:40;12.80;;;8.90;;
54897;SDS011;40800;52.704;6.398;2023-09-19T10:17:09;9.85;;;8.27;;
54897;SDS011;40800;52.704;6.398;2023-09-19T10:19:45;13.13;;;8.40;;
54897;SDS011;40800;52.704;6.398;2023-09-19T10:22:22;17.20;;;8.60;;
54897;SDS011;40800;52.704;6.398;2023-09-19T10:24:49;14.07;;;7.75;;
54897;SDS011;40800;52.704;6.398;2023-09-19T10:27:17;14.20;;;8.05;;
54897;SDS011;40800;52.704;6.398;2023-09-19T10:29:44;14.65;;;8.32;;
54897;SDS011;40800;52.704;6.398;2023-09-19T10:32:15;13.55;;;8.93;;
54897;SDS011;40800;52.704;6.398;2023-09-19T10:34:44;13.07;;;8.55;;
54897;SDS011;40800;52.704;6.398;2023-09-19T10:37:12;14.18;;;8.63;;
54897;SDS011;40800;52.704;6.398;2023-09-19T10:39:40;16.00;;;9.43;;
54897;SDS011;40800;52.704;6.398;2023-09-19T10:42:06;12.23;;;8.90;;
54897;SDS011;40800;52.704;6.398;2023-09-19T10:44:37;14.88;;;8.10;;
54897;SDS011;40800;52.704;6.398;2023-09-19T10:47:08;12.80;;;8.30;;
54897;SDS011;40800;52.704;6.398;2023-09-19T10:49:34;14.03;;;8.23;;
54897;SDS011;40800;52.704;6.398;2023-09-19T10:52:00;13.02;;;8.02;;
54897;SDS011;40800;52.704;6.398;2023-09-19T10:54:28;16.10;;;8.73;;
54897;SDS011;40800;52.704;6.398;2023-09-19T10:57:01;10.95;;;8.18;;
54897;SDS011;40800;52.704;6.398;2023-09-19T10:59:30;15.88;;;8.60;;
54897;SDS011;40800;52.704;6.398;2023-09-19T11:01:59;11.88;;;7.97;;
54897;SDS011;40800;52.704;6.398;2023-09-19T11:04:40;16.25;;;8.63;;
54897;SDS011;40800;52.704;6.398;2023-09-19T11:07:06;12.27;;;7.80;;
54897;SDS011;40800;52.704;6.398;2023-09-19T11:09:57;12.38;;;8.50;;
54897;SDS011;40800;52.704;6.398;2023-09-19T11:15:10;12.65;;;8.18;;
54897;SDS011;40800;52.704;6.398;2023-09-19T11:26:47;13.00;;;8.20;;
54897;SDS011;40800;52.704;6.398;2023-09-19T11:29:29;15.02;;;8.57;;
54897;SDS011;40800;52.704;6.398;2023-09-19T11:31:56;14.43;;;8.15;;
54897;SDS011;40800;52.704;6.398;2023-09-19T11:39:39;14.77;;;7.63;;
54897;SDS011;40800;52.704;6.398;2023-09-19T11:42:40;11.98;;;8.00;;
54897;SDS011;40800;52.704;6.398;2023-09-19T11:45:06;14.57;;;7.90;;
54897;SDS011;40800;52.704;6.398;2023-09-19T11:47:32;12.30;;;7.32;;
54897;SDS011;40800;52.704;6.398;2023-09-19T11:50:00;12.27;;;7.75;;
54897;SDS011;40800;52.704;6.398;2023-09-19T11:52:26;13.80;;;8.20;;
54897;SDS011;40800;52.704;6.398;2023-09-19T11:54:59;10.38;;;7.28;;
54897;SDS011;40800;52.704;6.398;2023-09-19T11:57:27;10.30;;;7.05;;
54897;SDS011;40800;52.704;6.398;2023-09-19T11:59:55;11.55;;;7.13;;
54897;SDS011;40800;52.704;6.398;2023-09-19T12:02:38;11.55;;;7.40;;
54897;SDS011;40800;52.704;6.398;2023-09-19T12:05:07;13.10;;;7.97;;
54897;SDS011;40800;52.704;6.398;2023-09-19T12:07:42;12.90;;;7.90;;
54897;SDS011;40800;52.704;6.398;2023-09-19T12:10:12;11.45;;;7.28;;
54897;SDS011;40800;52.704;6.398;2023-09-19T12:15:05;11.32;;;7.25;;
54897;SDS011;40800;52.704;6.398;2023-09-19T12:17:35;12.35;;;7.47;;
54897;SDS011;40800;52.704;6.398;2023-09-19T12:20:01;12.00;;;7.32;;
54897;SDS011;40800;52.704;6.398;2023-09-19T12:22:40;13.32;;;7.60;;
54897;SDS011;40800;52.704;6.398;2023-09-19T12:25:08;9.43;;;7.28;;
54897;SDS011;40800;52.704;6.398;2023-09-19T12:27:42;14.52;;;7.95;;
54897;SDS011;40800;52.704;6.398;2023-09-19T12:30:09;11.07;;;7.60;;
54897;SDS011;40800;52.704;6.398;2023-09-19T12:32:39;9.40;;;8.00;;
54897;SDS011;40800;52.704;6.398;2023-09-19T12:35:08;10.95;;;7.75;;
54897;SDS011;40800;52.704;6.398;2023-09-19T12:37:36;10.32;;;7.32;;
54897;SDS011;40800;52.704;6.398;2023-09-19T12:40:06;15.13;;;7.90;;
54897;SDS011;40800;52.704;6.398;2023-09-19T12:42:43;7.75;;;6.95;;
54897;SDS011;40800;52.704;6.398;2023-09-19T12:45:10;10.57;;;7.20;;
54897;SDS011;40800;52.704;6.398;2023-09-19T12:47:40;9.65;;;6.80;;
54897;SDS011;40800;52.704;6.398;2023-09-19T12:50:26;11.38;;;7.32;;
54897;SDS011;40800;52.704;6.398;2023-09-19T12:52:54;10.50;;;7.00;;
54897;SDS011;40800;52.704;6.398;2023-09-19T12:55:27;9.73;;;6.78;;
54897;SDS011;40800;52.704;6.398;2023-09-19T12:58:14;10.65;;;7.00;;
54897;SDS011;40800;52.704;6.398;2023-09-19T13:00:43;8.98;;;6.85;;
54897;SDS011;40800;52.704;6.398;2023-09-19T13:03:14;7.95;;;6.60;;
54897;SDS011;40800;52.704;6.398;2023-09-19T13:05:57;7.57;;;6.88;;
54897;SDS011;40800;52.704;6.398;2023-09-19T13:08:26;8.05;;;6.78;;
54897;SDS011;40800;52.704;6.398;2023-09-19T13:11:04;10.18;;;6.90;;
54897;SDS011;40800;52.704;6.398;2023-09-19T13:13:40;8.73;;;6.63;;
54897;SDS011;40800;52.704;6.398;2023-09-19T13:16:14;9.40;;;6.90;;
54897;SDS011;40800;52.704;6.398;2023-09-19T13:18:44;9.77;;;6.93;;
54897;SDS011;40800;52.704;6.398;2023-09-19T13:21:12;9.43;;;6.80;;
54897;SDS011;40800;52.704;6.398;2023-09-19T13:23:47;9.55;;;6.60;;
54897;SDS011;40800;52.704;6.398;2023-09-19T13:26:14;10.25;;;7.18;;
54897;SDS011;40800;52.704;6.398;2023-09-19T13:28:40;8.18;;;6.75;;
54897;SDS011;40800;52.704;6.398;2023-09-19T13:31:05;13.02;;;7.20;;
54897;SDS011;40800;52.704;6.398;2023-09-19T13:33:32;10.65;;;6.88;;
54897;SDS011;40800;52.704;6.398;2023-09-19T13:38:24;7.60;;;6.80;;
54897;SDS011;40800;52.704;6.398;2023-09-19T13:40:49;8.73;;;7.03;;
54897;SDS011;40800;52.704;6.398;2023-09-19T13:43:17;10.32;;;7.10;;
54897;SDS011;40800;52.704;6.398;2023-09-19T13:45:43;8.27;;;6.78;;
54897;SDS011;40800;52.704;6.398;2023-09-19T13:48:08;9.32;;;6.97;;
54897;SDS011;40800;52.704;6.398;2023-09-19T13:50:36;10.75;;;6.88;;
54897;SDS011;40800;52.704;6.398;2023-09-19T13:53:07;9.38;;;6.45;;
54897;SDS011;40800;52.704;6.398;2023-09-19T13:55:36;10.27;;;6.90;;
54897;SDS011;40800;52.704;6.398;2023-09-19T13:58:03;9.65;;;6.75;;
54897;SDS011;40800;52.704;6.398;2023-09-19T14:00:30;8.75;;;6.63;;
54897;SDS011;40800;52.704;6.398;2023-09-19T14:02:59;8.30;;;6.55;;
54897;SDS011;40800;52.704;6.398;2023-09-19T14:05:26;9.10;;;6.60;;
54897;SDS011;40800;52.704;6.398;2023-09-19T14:10:20;6.93;;;6.20;;
54897;SDS011;40800;52.704;6.398;2023-09-19T14:12:46;7.75;;;6.78;;
54897;SDS011;40800;52.704;6.398;2023-09-19T14:15:12;6.97;;;6.28;;
54897;SDS011;40800;52.704;6.398;2023-09-19T14:17:39;7.00;;;6.30;;
54897;SDS011;40800;52.704;6.398;2023-09-19T14:20:07;7.28;;;6.15;;
54897;SDS011;40800;52.704;6.398;2023-09-19T14:22:35;8.63;;;6.22;;
54897;SDS011;40800;52.704;6.398;2023-09-19T14:25:01;7.05;;;6.15;;
54897;SDS011;40800;52.704;6.398;2023-09-19T14:27:29;7.78;;;6.20;;
54897;SDS011;40800;52.704;6.398;2023-09-19T14:29:54;8.52;;;6.20;;
54897;SDS011;40800;52.704;6.398;2023-09-19T14:34:47;8.82;;;6.40;;
54897;SDS011;40800;52.704;6.398;2023-09-19T14:37:13;9.13;;;6.40;;
54897;SDS011;40800;52.704;6.398;2023-09-19T14:39:39;8.27;;;6.70;;
54897;SDS011;40800;52.704;6.398;2023-09-19T14:44:31;10.10;;;6.90;;
54897;SDS011;40800;52.704;6.398;2023-09-19T14:46:57;7.20;;;6.50;;
54897;SDS011;40800;52.704;6.398;2023-09-19T14:49:23;9.95;;;6.63;;
54897;SDS011;40800;52.704;6.398;2023-09-19T14:51:50;7.28;;;6.57;;
54897;SDS011;40800;52.704;6.398;2023-09-19T14:54:17;7.10;;;6.40;;
54897;SDS011;40800;52.704;6.398;2023-09-19T14:56:43;7.53;;;6.80;;
54897;SDS011;40800;52.704;6.398;2023-09-19T14:59:09;7.43;;;6.73;;
54897;SDS011;40800;52.704;6.398;2023-09-19T15:01:36;9.52;;;6.85;;
54897;SDS011;40800;52.704;6.398;2023-09-19T15:04:03;8.02;;;6.70;;
54897;SDS011;40800;52.704;6.398;2023-09-19T15:06:28;7.15;;;6.35;;
54897;SDS011;40800;52.704;6.398;2023-09-19T15:08:54;9.10;;;7.10;;
54897;SDS011;40800;52.704;6.398;2023-09-19T15:11:19;8.82;;;6.53;;
54897;SDS011;40800;52.704;6.398;2023-09-19T15:13:46;8.30;;;6.60;;
54897;SDS011;40800;52.704;6.398;2023-09-19T15:18:42;10.02;;;6.82;;
54897;SDS011;40800;52.704;6.398;2023-09-19T15:21:10;7.22;;;6.43;;
54897;SDS011;40800;52.704;6.398;2023-09-19T15:23:37;8.40;;;6.45;;
54897;SDS011;40800;52.704;6.398;2023-09-19T15:26:03;9.18;;;6.75;;
54897;SDS011;40800;52.704;6.398;2023-09-19T15:28:30;7.80;;;6.80;;
54897;SDS011;40800;52.704;6.398;2023-09-19T15:31:07;10.32;;;6.78;;